sensor_id;sensor_type;location;lat;lon;timestamp;P1;durP1;ratioP1;P2;durP2;ratioP2
58888;SDS011;44671;49.326;8.430;2023-08-20T00:00:36;2.78;;;2.58;;
58888;SDS011;44671;49.326;8.430;2023-08-20T00:03:03;2.63;;;2.50;;
58888;SDS011;44671;49.326;8.430;2023-08-20T00:05:30;2.70;;;2.50;;
58888;SDS011;44671;49.326;8.430;2023-08-20T00:07:56;3.17;;;2.97;;
58888;SDS011;44671;49.326;8.430;2023-08-20T00:10:21;2.95;;;2.75;;
58888;SDS011;44671;49.326;8.430;2023-08-20T00:12:46;2.83;;;2.63;;
58888;SDS011;44671;49.326;8.430;2023-08-20T00:15:12;2.85;;;2.65;;
58888;SDS011;44671;49.326;8.430;2023-08-20T00:17:38;2.50;;;2.38;;
58888;SDS011;44671;49.326;8.430;2023-08-20T00:20:05;2.78;;;2.58;;
58888;SDS011;44671;49.326;8.430;2023-08-20T00:22:35;2.85;;;2.65;;
58888;SDS011;44671;49.326;8.430;2023-08-20T00:25:01;2.88;;;2.67;;
58888;SDS011;44671;49.326;8.430;2023-08-20T00:27:28;2.78;;;2.58;;
58888;SDS011;44671;49.326;8.430;2023-08-20T00:29:53;2.53;;;2.33;;
58888;SDS011;44671;49.326;8.430;2023-08-20T00:32:18;2.80;;;2.60;;
58888;SDS011;44671;49.326;8.430;2023-08-20T00:34:44;3.22;;;2.97;;
58888;SDS011;44671;49.326;8.430;2023-08-20T00:37:09;2.78;;;2.58;;
58888;SDS011;44671;49.326;8.430;2023-08-20T00:39:34;2.90;;;2.60;;
58888;SDS011;44671;49.326;8.430;2023-08-20T00:42:00;3.20;;;2.90;;
58888;SDS011;44671;49.326;8.430;2023-08-20T00:44:25;2.90;;;2.70;;
58888;SDS011;44671;49.326;8.430;2023-08-20T00:46:50;3.08;;;2.78;;
58888;SDS011;44671;49.326;8.430;2023-08-20T00:49:16;2.90;;;2.70;;
58888;SDS011;44671;49.326;8.430;2023-08-20T00:51:41;2.70;;;2.50;;
58888;SDS011;44671;49.326;8.430;2023-08-20T00:54:07;2.88;;;2.67;;
58888;SDS011;44671;49.326;8.430;2023-08-20T00:56:32;3.55;;;2.70;;
58888;SDS011;44671;49.326;8.430;2023-08-20T00:58:57;3.22;;;3.03;;
58888;SDS011;44671;49.326;8.430;2023-08-20T01:01:23;2.85;;;2.65;;
58888;SDS011;44671;49.326;8.430;2023-08-20T01:03:48;3.10;;;2.90;;
58888;SDS011;44671;49.326;8.430;2023-08-20T01:06:22;2.90;;;2.70;;
58888;SDS011;44671;49.326;8.430;2023-08-20T01:09:06;2.73;;;2.53;;
58888;SDS011;44671;49.326;8.430;2023-08-20T01:11:39;4.20;;;2.88;;
58888;SDS011;44671;49.326;8.430;2023-08-20T01:14:16;2.95;;;2.75;;
58888;SDS011;44671;49.326;8.430;2023-08-20T01:16:42;2.65;;;2.55;;
58888;SDS011;44671;49.326;8.430;2023-08-20T01:19:10;3.05;;;2.85;;
58888;SDS011;44671;49.326;8.430;2023-08-20T01:21:47;3.13;;;2.92;;
58888;SDS011;44671;49.326;8.430;2023-08-20T01:24:43;3.10;;;2.90;;
58888;SDS011;44671;49.326;8.430;2023-08-20T01:29:56;3.00;;;2.80;;
58888;SDS011;44671;49.326;8.430;2023-08-20T01:32:23;2.88;;;2.67;;
58888;SDS011;44671;49.326;8.430;2023-08-20T01:34:49;3.13;;;2.90;;
58888;SDS011;44671;49.326;8.430;2023-08-20T01:37:14;3.30;;;3.00;;
58888;SDS011;44671;49.326;8.430;2023-08-20T01:39:39;2.90;;;2.70;;
58888;SDS011;44671;49.326;8.430;2023-08-20T01:42:05;3.05;;;2.85;;
58888;SDS011;44671;49.326;8.430;2023-08-20T01:44:31;2.63;;;2.42;;
58888;SDS011;44671;49.326;8.430;2023-08-20T01:46:56;2.85;;;2.63;;
58888;SDS011;44671;49.326;8.430;2023-08-20T01:49:21;3.10;;;2.88;;
58888;SDS011;44671;49.326;8.430;2023-08-20T01:51:47;2.85;;;2.65;;
58888;SDS011;44671;49.326;8.430;2023-08-20T01:54:12;3.00;;;2.80;;
58888;SDS011;44671;49.326;8.430;2023-08-20T01:56:37;2.90;;;2.70;;
58888;SDS011;44671;49.326;8.430;2023-08-20T01:59:03;2.78;;;2.60;;
58888;SDS011;44671;49.326;8.430;2023-08-20T02:01:28;2.60;;;2.40;;
58888;SDS011;44671;49.326;8.430;2023-08-20T02:03:53;2.88;;;2.67;;
58888;SDS011;44671;49.326;8.430;2023-08-20T02:06:19;2.90;;;2.70;;
58888;SDS011;44671;49.326;8.430;2023-08-20T02:08:44;3.08;;;2.88;;
58888;SDS011;44671;49.326;8.430;2023-08-20T02:11:09;2.90;;;2.70;;
58888;SDS011;44671;49.326;8.430;2023-08-20T02:13:35;3.20;;;3.00;;
58888;SDS011;44671;49.326;8.430;2023-08-20T02:16:00;2.63;;;2.47;;
58888;SDS011;44671;49.326;8.430;2023-08-20T02:18:27;2.97;;;2.78;;
58888;SDS011;44671;49.326;8.430;2023-08-20T02:20:53;2.72;;;2.63;;
58888;SDS011;44671;49.326;8.430;2023-08-20T02:23:18;3.00;;;2.80;;
58888;SDS011;44671;49.326;8.430;2023-08-20T02:25:43;3.20;;;3.00;;
58888;SDS011;44671;49.326;8.430;2023-08-20T02:28:09;2.97;;;2.75;;
58888;SDS011;44671;49.326;8.430;2023-08-20T02:30:44;3.13;;;2.83;;
58888;SDS011;44671;49.326;8.430;2023-08-20T02:33:11;2.92;;;2.72;;
58888;SDS011;44671;49.326;8.430;2023-08-20T02:35:37;2.55;;;2.38;;
58888;SDS011;44671;49.326;8.430;2023-08-20T02:38:03;2.80;;;2.60;;
58888;SDS011;44671;49.326;8.430;2023-08-20T02:40:28;3.10;;;2.90;;
58888;SDS011;44671;49.326;8.430;2023-08-20T02:42:53;2.85;;;2.65;;
58888;SDS011;44671;49.326;8.430;2023-08-20T02:45:19;3.17;;;2.55;;
58888;SDS011;44671;49.326;8.430;2023-08-20T02:47:44;3.10;;;2.80;;
58888;SDS011;44671;49.326;8.430;2023-08-20T02:50:09;2.67;;;2.47;;
58888;SDS011;44671;49.326;8.430;2023-08-20T02:52:35;2.72;;;2.53;;
58888;SDS011;44671;49.326;8.430;2023-08-20T02:55:00;2.83;;;2.63;;
58888;SDS011;44671;49.326;8.430;2023-08-20T02:57:25;2.40;;;2.30;;
58888;SDS011;44671;49.326;8.430;2023-08-20T02:59:51;2.72;;;2.53;;
58888;SDS011;44671;49.326;8.430;2023-08-20T03:02:16;2.70;;;2.50;;
58888;SDS011;44671;49.326;8.430;2023-08-20T03:04:42;2.80;;;2.60;;
58888;SDS011;44671;49.326;8.430;2023-08-20T03:07:07;2.80;;;2.60;;
58888;SDS011;44671;49.326;8.430;2023-08-20T03:09:33;3.00;;;2.80;;
58888;SDS011;44671;49.326;8.430;2023-08-20T03:11:58;2.72;;;2.53;;
58888;SDS011;44671;49.326;8.430;2023-08-20T03:14:24;2.72;;;2.53;;
58888;SDS011;44671;49.326;8.430;2023-08-20T03:16:49;2.70;;;2.50;;
58888;SDS011;44671;49.326;8.430;2023-08-20T03:19:14;2.70;;;2.50;;
58888;SDS011;44671;49.326;8.430;2023-08-20T03:21:40;2.60;;;2.42;;
58888;SDS011;44671;49.326;8.430;2023-08-20T03:24:05;2.90;;;2.70;;
58888;SDS011;44671;49.326;8.430;2023-08-20T03:26:32;2.90;;;2.70;;
58888;SDS011;44671;49.326;8.430;2023-08-20T03:28:57;2.85;;;2.70;;
58888;SDS011;44671;49.326;8.430;2023-08-20T03:31:23;2.83;;;2.63;;
58888;SDS011;44671;49.326;8.430;2023-08-20T03:33:49;2.60;;;2.50;;
58888;SDS011;44671;49.326;8.430;2023-08-20T03:36:14;2.70;;;2.50;;
58888;SDS011;44671;49.326;8.430;2023-08-20T03:38:39;2.90;;;2.70;;
58888;SDS011;44671;49.326;8.430;2023-08-20T03:41:05;3.08;;;2.88;;
58888;SDS011;44671;49.326;8.430;2023-08-20T03:43:30;3.10;;;2.90;;
58888;SDS011;44671;49.326;8.430;2023-08-20T03:45:56;2.40;;;2.20;;
58888;SDS011;44671;49.326;8.430;2023-08-20T03:48:21;2.60;;;2.50;;
58888;SDS011;44671;49.326;8.430;2023-08-20T03:50:46;2.45;;;2.35;;
58888;SDS011;44671;49.326;8.430;2023-08-20T03:53:12;3.10;;;2.90;;
58888;SDS011;44671;49.326;8.430;2023-08-20T03:55:37;2.47;;;2.30;;
58888;SDS011;44671;49.326;8.430;2023-08-20T03:58:02;2.70;;;2.50;;
58888;SDS011;44671;49.326;8.430;2023-08-20T04:00:28;3.20;;;3.00;;
58888;SDS011;44671;49.326;8.430;2023-08-20T04:02:53;2.80;;;2.60;;
58888;SDS011;44671;49.326;8.430;2023-08-20T04:05:19;2.70;;;2.50;;
58888;SDS011;44671;49.326;8.430;2023-08-20T04:07:44;3.00;;;2.80;;
58888;SDS011;44671;49.326;8.430;2023-08-20T04:10:10;2.72;;;2.53;;
58888;SDS011;44671;49.326;8.430;2023-08-20T04:12:35;2.80;;;2.60;;
58888;SDS011;44671;49.326;8.430;2023-08-20T04:15:01;2.78;;;2.58;;
58888;SDS011;44671;49.326;8.430;2023-08-20T04:17:26;2.58;;;2.38;;
58888;SDS011;44671;49.326;8.430;2023-08-20T04:19:51;3.10;;;2.90;;
58888;SDS011;44671;49.326;8.430;2023-08-20T04:22:17;2.88;;;2.65;;
58888;SDS011;44671;49.326;8.430;2023-08-20T04:24:42;2.95;;;2.75;;
58888;SDS011;44671;49.326;8.430;2023-08-20T04:27:08;2.30;;;2.20;;
58888;SDS011;44671;49.326;8.430;2023-08-20T04:29:33;3.10;;;2.90;;
58888;SDS011;44671;49.326;8.430;2023-08-20T04:31:58;2.80;;;2.60;;
58888;SDS011;44671;49.326;8.430;2023-08-20T04:34:24;2.88;;;2.67;;
58888;SDS011;44671;49.326;8.430;2023-08-20T04:36:49;2.70;;;2.50;;
58888;SDS011;44671;49.326;8.430;2023-08-20T04:39:14;2.97;;;2.78;;
58888;SDS011;44671;49.326;8.430;2023-08-20T04:41:40;2.88;;;2.67;;
58888;SDS011;44671;49.326;8.430;2023-08-20T04:44:05;3.05;;;2.85;;
58888;SDS011;44671;49.326;8.430;2023-08-20T04:46:30;2.90;;;2.70;;
58888;SDS011;44671;49.326;8.430;2023-08-20T04:48:56;2.72;;;2.53;;
58888;SDS011;44671;49.326;8.430;2023-08-20T04:51:21;2.47;;;2.35;;
58888;SDS011;44671;49.326;8.430;2023-08-20T04:53:46;2.60;;;2.40;;
58888;SDS011;44671;49.326;8.430;2023-08-20T04:59:34;2.58;;;2.47;;
58888;SDS011;44671;49.326;8.430;2023-08-20T05:01:59;2.53;;;2.42;;
58888;SDS011;44671;49.326;8.430;2023-08-20T05:04:24;2.75;;;2.55;;
58888;SDS011;44671;49.326;8.430;2023-08-20T05:06:50;3.25;;;3.05;;
58888;SDS011;44671;49.326;8.430;2023-08-20T05:09:15;2.63;;;2.42;;
58888;SDS011;44671;49.326;8.430;2023-08-20T05:11:41;2.55;;;2.35;;
58888;SDS011;44671;49.326;8.430;2023-08-20T05:14:06;2.53;;;2.33;;
58888;SDS011;44671;49.326;8.430;2023-08-20T05:16:32;2.70;;;2.50;;
58888;SDS011;44671;49.326;8.430;2023-08-20T05:18:57;2.47;;;2.35;;
58888;SDS011;44671;49.326;8.430;2023-08-20T05:21:22;2.53;;;2.40;;
58888;SDS011;44671;49.326;8.430;2023-08-20T05:23:48;2.53;;;2.33;;
58888;SDS011;44671;49.326;8.430;2023-08-20T05:26:13;2.60;;;2.45;;
58888;SDS011;44671;49.326;8.430;2023-08-20T05:28:38;2.92;;;2.72;;
58888;SDS011;44671;49.326;8.430;2023-08-20T05:31:04;2.38;;;2.17;;
58888;SDS011;44671;49.326;8.430;2023-08-20T05:33:29;2.80;;;2.60;;
58888;SDS011;44671;49.326;8.430;2023-08-20T05:35:54;2.55;;;2.45;;
58888;SDS011;44671;49.326;8.430;2023-08-20T05:38:20;2.65;;;2.45;;
58888;SDS011;44671;49.326;8.430;2023-08-20T05:40:45;2.90;;;2.70;;
58888;SDS011;44671;49.326;8.430;2023-08-20T05:43:11;2.85;;;2.65;;
58888;SDS011;44671;49.326;8.430;2023-08-20T05:45:36;2.30;;;2.20;;
58888;SDS011;44671;49.326;8.430;2023-08-20T05:48:01;2.90;;;2.70;;
58888;SDS011;44671;49.326;8.430;2023-08-20T05:50:27;2.75;;;2.55;;
58888;SDS011;44671;49.326;8.430;2023-08-20T05:52:52;2.90;;;2.70;;
58888;SDS011;44671;49.326;8.430;2023-08-20T05:55:18;2.70;;;2.50;;
58888;SDS011;44671;49.326;8.430;2023-08-20T05:57:43;2.67;;;2.47;;
58888;SDS011;44671;49.326;8.430;2023-08-20T06:00:09;2.67;;;2.47;;
58888;SDS011;44671;49.326;8.430;2023-08-20T06:02:35;2.75;;;2.60;;
58888;SDS011;44671;49.326;8.430;2023-08-20T06:05:01;2.67;;;2.50;;
58888;SDS011;44671;49.326;8.430;2023-08-20T06:07:27;2.92;;;2.72;;
58888;SDS011;44671;49.326;8.430;2023-08-20T06:09:52;3.10;;;2.90;;
58888;SDS011;44671;49.326;8.430;2023-08-20T06:12:17;3.20;;;2.88;;
58888;SDS011;44671;49.326;8.430;2023-08-20T06:14:43;3.08;;;2.88;;
58888;SDS011;44671;49.326;8.430;2023-08-20T06:17:08;2.97;;;2.78;;
58888;SDS011;44671;49.326;8.430;2023-08-20T06:19:34;3.20;;;2.90;;
58888;SDS011;44671;49.326;8.430;2023-08-20T06:21:59;2.97;;;2.78;;
58888;SDS011;44671;49.326;8.430;2023-08-20T06:24:25;2.67;;;2.50;;
58888;SDS011;44671;49.326;8.430;2023-08-20T06:26:51;2.95;;;2.72;;
58888;SDS011;44671;49.326;8.430;2023-08-20T06:29:17;2.67;;;2.47;;
58888;SDS011;44671;49.326;8.430;2023-08-20T06:31:42;2.88;;;2.67;;
58888;SDS011;44671;49.326;8.430;2023-08-20T06:34:08;2.80;;;2.60;;
58888;SDS011;44671;49.326;8.430;2023-08-20T06:36:33;2.97;;;2.78;;
58888;SDS011;44671;49.326;8.430;2023-08-20T06:38:59;2.88;;;2.67;;
58888;SDS011;44671;49.326;8.430;2023-08-20T06:41:24;3.05;;;2.80;;
58888;SDS011;44671;49.326;8.430;2023-08-20T06:43:49;3.17;;;2.97;;
58888;SDS011;44671;49.326;8.430;2023-08-20T06:46:15;3.20;;;2.90;;
58888;SDS011;44671;49.326;8.430;2023-08-20T06:48:40;3.55;;;3.25;;
58888;SDS011;44671;49.326;8.430;2023-08-20T06:51:14;2.78;;;2.60;;
58888;SDS011;44671;49.326;8.430;2023-08-20T06:53:42;3.00;;;2.80;;
58888;SDS011;44671;49.326;8.430;2023-08-20T06:56:08;3.00;;;2.80;;
58888;SDS011;44671;49.326;8.430;2023-08-20T06:58:34;2.70;;;2.50;;
58888;SDS011;44671;49.326;8.430;2023-08-20T07:00:59;3.28;;;2.85;;
58888;SDS011;44671;49.326;8.430;2023-08-20T07:03:37;2.80;;;2.60;;
58888;SDS011;44671;49.326;8.430;2023-08-20T07:06:03;2.97;;;2.78;;
58888;SDS011;44671;49.326;8.430;2023-08-20T07:08:28;2.90;;;2.70;;
58888;SDS011;44671;49.326;8.430;2023-08-20T07:10:54;2.95;;;2.75;;
58888;SDS011;44671;49.326;8.430;2023-08-20T07:13:19;3.30;;;3.10;;
58888;SDS011;44671;49.326;8.430;2023-08-20T07:15:44;2.80;;;2.60;;
58888;SDS011;44671;49.326;8.430;2023-08-20T07:18:10;3.25;;;3.05;;
58888;SDS011;44671;49.326;8.430;2023-08-20T07:20:38;3.47;;;3.22;;
58888;SDS011;44671;49.326;8.430;2023-08-20T07:23:03;3.47;;;3.15;;
58888;SDS011;44671;49.326;8.430;2023-08-20T07:25:29;3.22;;;2.95;;
58888;SDS011;44671;49.326;8.430;2023-08-20T07:27:54;3.17;;;2.97;;
58888;SDS011;44671;49.326;8.430;2023-08-20T07:30:24;3.03;;;2.83;;
58888;SDS011;44671;49.326;8.430;2023-08-20T07:32:49;3.10;;;2.90;;
58888;SDS011;44671;49.326;8.430;2023-08-20T07:35:15;3.10;;;2.90;;
58888;SDS011;44671;49.326;8.430;2023-08-20T07:37:40;3.15;;;2.95;;
58888;SDS011;44671;49.326;8.430;2023-08-20T07:40:05;3.35;;;3.08;;
58888;SDS011;44671;49.326;8.430;2023-08-20T07:42:31;3.08;;;2.88;;
58888;SDS011;44671;49.326;8.430;2023-08-20T07:44:57;3.30;;;3.05;;
58888;SDS011;44671;49.326;8.430;2023-08-20T07:47:22;3.15;;;2.95;;
58888;SDS011;44671;49.326;8.430;2023-08-20T07:49:47;3.20;;;3.00;;
58888;SDS011;44671;49.326;8.430;2023-08-20T07:52:13;3.60;;;3.30;;
58888;SDS011;44671;49.326;8.430;2023-08-20T07:54:38;3.13;;;2.83;;
58888;SDS011;44671;49.326;8.430;2023-08-20T07:57:03;3.70;;;3.40;;
58888;SDS011;44671;49.326;8.430;2023-08-20T07:59:29;3.03;;;2.83;;
58888;SDS011;44671;49.326;8.430;2023-08-20T08:01:54;3.15;;;2.90;;
58888;SDS011;44671;49.326;8.430;2023-08-20T08:04:20;3.28;;;2.97;;
58888;SDS011;44671;49.326;8.430;2023-08-20T08:06:45;3.53;;;3.22;;
58888;SDS011;44671;49.326;8.430;2023-08-20T08:09:30;3.20;;;3.00;;
58888;SDS011;44671;49.326;8.430;2023-08-20T08:11:56;3.33;;;3.00;;
58888;SDS011;44671;49.326;8.430;2023-08-20T08:14:22;3.50;;;3.30;;
58888;SDS011;44671;49.326;8.430;2023-08-20T08:16:48;3.15;;;2.92;;
58888;SDS011;44671;49.326;8.430;2023-08-20T08:19:14;3.28;;;3.08;;
58888;SDS011;44671;49.326;8.430;2023-08-20T08:21:39;3.22;;;2.95;;
58888;SDS011;44671;49.326;8.430;2023-08-20T08:24:06;3.28;;;2.97;;
58888;SDS011;44671;49.326;8.430;2023-08-20T08:26:34;3.17;;;2.97;;
58888;SDS011;44671;49.326;8.430;2023-08-20T08:29:00;3.58;;;3.30;;
58888;SDS011;44671;49.326;8.430;2023-08-20T08:31:26;3.10;;;2.90;;
58888;SDS011;44671;49.326;8.430;2023-08-20T08:33:51;3.60;;;3.40;;
58888;SDS011;44671;49.326;8.430;2023-08-20T08:36:17;3.50;;;3.20;;
58888;SDS011;44671;49.326;8.430;2023-08-20T08:38:45;3.83;;;3.53;;
58888;SDS011;44671;49.326;8.430;2023-08-20T08:41:11;3.40;;;3.10;;
58888;SDS011;44671;49.326;8.430;2023-08-20T08:43:38;3.45;;;3.25;;
58888;SDS011;44671;49.326;8.430;2023-08-20T08:46:07;3.40;;;3.20;;
58888;SDS011;44671;49.326;8.430;2023-08-20T08:48:34;3.83;;;3.53;;
58888;SDS011;44671;49.326;8.430;2023-08-20T08:51:00;3.88;;;3.45;;
58888;SDS011;44671;49.326;8.430;2023-08-20T08:53:26;3.97;;;3.67;;
58888;SDS011;44671;49.326;8.430;2023-08-20T08:55:51;3.80;;;3.50;;
58888;SDS011;44671;49.326;8.430;2023-08-20T08:58:17;3.10;;;2.90;;
58888;SDS011;44671;49.326;8.430;2023-08-20T09:00:42;3.70;;;3.47;;
58888;SDS011;44671;49.326;8.430;2023-08-20T09:03:07;3.70;;;3.40;;
58888;SDS011;44671;49.326;8.430;2023-08-20T09:05:44;3.25;;;3.05;;
58888;SDS011;44671;49.326;8.430;2023-08-20T09:08:15;3.85;;;3.55;;
58888;SDS011;44671;49.326;8.430;2023-08-20T09:10:44;3.42;;;3.10;;
58888;SDS011;44671;49.326;8.430;2023-08-20T09:13:09;3.97;;;3.67;;
58888;SDS011;44671;49.326;8.430;2023-08-20T09:15:34;3.50;;;3.17;;
58888;SDS011;44671;49.326;8.430;2023-08-20T09:18:01;3.38;;;3.15;;
58888;SDS011;44671;49.326;8.430;2023-08-20T09:20:34;3.08;;;2.85;;
58888;SDS011;44671;49.326;8.430;2023-08-20T09:23:03;3.53;;;3.22;;
58888;SDS011;44671;49.326;8.430;2023-08-20T09:25:29;3.42;;;3.13;;
58888;SDS011;44671;49.326;8.430;2023-08-20T09:27:55;3.80;;;3.50;;
58888;SDS011;44671;49.326;8.430;2023-08-20T09:30:20;3.50;;;3.30;;
58888;SDS011;44671;49.326;8.430;2023-08-20T09:32:46;3.50;;;3.20;;
58888;SDS011;44671;49.326;8.430;2023-08-20T09:35:27;3.25;;;2.95;;
58888;SDS011;44671;49.326;8.430;2023-08-20T09:37:58;3.33;;;3.13;;
58888;SDS011;44671;49.326;8.430;2023-08-20T09:40:23;4.25;;;3.92;;
58888;SDS011;44671;49.326;8.430;2023-08-20T09:42:49;3.17;;;2.97;;
58888;SDS011;44671;49.326;8.430;2023-08-20T09:45:15;3.78;;;3.47;;
58888;SDS011;44671;49.326;8.430;2023-08-20T09:47:41;3.50;;;3.22;;
58888;SDS011;44671;49.326;8.430;2023-08-20T09:50:08;3.63;;;3.38;;
58888;SDS011;44671;49.326;8.430;2023-08-20T09:52:38;4.20;;;3.85;;
58888;SDS011;44671;49.326;8.430;2023-08-20T10:00:06;3.08;;;2.88;;
58888;SDS011;44671;49.326;8.430;2023-08-20T10:02:35;3.53;;;3.22;;
58888;SDS011;44671;49.326;8.430;2023-08-20T10:05:00;3.55;;;3.30;;
58888;SDS011;44671;49.326;8.430;2023-08-20T10:07:28;3.90;;;3.58;;
58888;SDS011;44671;49.326;8.430;2023-08-20T10:09:56;3.90;;;3.65;;
58888;SDS011;44671;49.326;8.430;2023-08-20T10:12:25;3.58;;;3.38;;
58888;SDS011;44671;49.326;8.430;2023-08-20T10:14:51;3.47;;;3.22;;
58888;SDS011;44671;49.326;8.430;2023-08-20T10:17:17;3.47;;;3.22;;
58888;SDS011;44671;49.326;8.430;2023-08-20T10:19:42;3.80;;;3.50;;
58888;SDS011;44671;49.326;8.430;2023-08-20T10:22:08;3.50;;;3.30;;
58888;SDS011;44671;49.326;8.430;2023-08-20T10:24:46;3.40;;;3.20;;
58888;SDS011;44671;49.326;8.430;2023-08-20T10:27:23;3.85;;;3.55;;
58888;SDS011;44671;49.326;8.430;2023-08-20T10:29:49;3.80;;;3.50;;
58888;SDS011;44671;49.326;8.430;2023-08-20T10:32:14;3.65;;;3.35;;
58888;SDS011;44671;49.326;8.430;2023-08-20T10:34:42;3.80;;;3.50;;
58888;SDS011;44671;49.326;8.430;2023-08-20T10:37:10;4.18;;;3.78;;
58888;SDS011;44671;49.326;8.430;2023-08-20T10:39:37;3.60;;;3.38;;
58888;SDS011;44671;49.326;8.430;2023-08-20T10:42:09;3.45;;;3.25;;
58888;SDS011;44671;49.326;8.430;2023-08-20T10:50:10;3.50;;;3.20;;
58888;SDS011;44671;49.326;8.430;2023-08-20T10:52:55;3.78;;;3.47;;
58888;SDS011;44671;49.326;8.430;2023-08-20T10:55:24;3.65;;;3.35;;
58888;SDS011;44671;49.326;8.430;2023-08-20T10:57:56;4.10;;;3.80;;
58888;SDS011;44671;49.326;8.430;2023-08-20T11:00:22;4.13;;;3.83;;
58888;SDS011;44671;49.326;8.430;2023-08-20T11:02:47;3.42;;;3.22;;
58888;SDS011;44671;49.326;8.430;2023-08-20T11:05:17;4.13;;;3.78;;
58888;SDS011;44671;49.326;8.430;2023-08-20T11:07:47;3.60;;;3.38;;
58888;SDS011;44671;49.326;8.430;2023-08-20T11:10:13;3.90;;;3.60;;
58888;SDS011;44671;49.326;8.430;2023-08-20T11:12:42;4.00;;;3.58;;
58888;SDS011;44671;49.326;8.430;2023-08-20T11:15:09;3.65;;;3.35;;
58888;SDS011;44671;49.326;8.430;2023-08-20T11:17:39;3.63;;;3.33;;
58888;SDS011;44671;49.326;8.430;2023-08-20T11:20:05;4.00;;;3.60;;
58888;SDS011;44671;49.326;8.430;2023-08-20T11:22:32;3.88;;;3.58;;
58888;SDS011;44671;49.326;8.430;2023-08-20T11:24:58;4.20;;;3.90;;
58888;SDS011;44671;49.326;8.430;2023-08-20T11:27:27;4.05;;;3.75;;
58888;SDS011;44671;49.326;8.430;2023-08-20T11:29:53;3.47;;;3.22;;
58888;SDS011;44671;49.326;8.430;2023-08-20T11:32:21;4.07;;;3.78;;
58888;SDS011;44671;49.326;8.430;2023-08-20T11:34:46;3.97;;;3.67;;
58888;SDS011;44671;49.326;8.430;2023-08-20T11:37:12;4.40;;;4.00;;
58888;SDS011;44671;49.326;8.430;2023-08-20T11:39:37;3.90;;;3.60;;
58888;SDS011;44671;49.326;8.430;2023-08-20T11:42:03;3.78;;;3.47;;
58888;SDS011;44671;49.326;8.430;2023-08-20T11:44:28;3.63;;;3.33;;
58888;SDS011;44671;49.326;8.430;2023-08-20T11:47:16;4.07;;;3.78;;
58888;SDS011;44671;49.326;8.430;2023-08-20T11:49:42;4.45;;;4.05;;
58888;SDS011;44671;49.326;8.430;2023-08-20T11:52:08;3.90;;;3.60;;
58888;SDS011;44671;49.326;8.430;2023-08-20T11:54:34;4.00;;;3.70;;
58888;SDS011;44671;49.326;8.430;2023-08-20T11:57:02;3.92;;;3.63;;
58888;SDS011;44671;49.326;8.430;2023-08-20T11:59:28;3.97;;;3.67;;
58888;SDS011;44671;49.326;8.430;2023-08-20T12:01:57;4.00;;;3.70;;
58888;SDS011;44671;49.326;8.430;2023-08-20T12:04:24;3.85;;;3.55;;
58888;SDS011;44671;49.326;8.430;2023-08-20T12:07:09;5.65;;;4.15;;
58888;SDS011;44671;49.326;8.430;2023-08-20T12:09:38;4.43;;;3.97;;
58888;SDS011;44671;49.326;8.430;2023-08-20T12:12:05;6.97;;;4.25;;
58888;SDS011;44671;49.326;8.430;2023-08-20T12:14:30;8.48;;;4.50;;
58888;SDS011;44671;49.326;8.430;2023-08-20T12:16:56;4.65;;;4.22;;
58888;SDS011;44671;49.326;8.430;2023-08-20T12:19:21;5.78;;;4.40;;
58888;SDS011;44671;49.326;8.430;2023-08-20T12:21:47;5.70;;;4.10;;
58888;SDS011;44671;49.326;8.430;2023-08-20T12:24:14;7.78;;;4.38;;
58888;SDS011;44671;49.326;8.430;2023-08-20T12:26:40;5.15;;;4.65;;
58888;SDS011;44671;49.326;8.430;2023-08-20T12:29:05;6.15;;;4.10;;
58888;SDS011;44671;49.326;8.430;2023-08-20T12:31:31;9.23;;;4.55;;
58888;SDS011;44671;49.326;8.430;2023-08-20T12:33:57;7.00;;;4.30;;
58888;SDS011;44671;49.326;8.430;2023-08-20T12:36:22;7.25;;;4.50;;
58888;SDS011;44671;49.326;8.430;2023-08-20T12:38:48;6.05;;;4.38;;
58888;SDS011;44671;49.326;8.430;2023-08-20T12:41:13;4.13;;;3.72;;
58888;SDS011;44671;49.326;8.430;2023-08-20T12:43:39;12.93;;;4.32;;
58888;SDS011;44671;49.326;8.430;2023-08-20T12:46:04;5.10;;;4.60;;
58888;SDS011;44671;49.326;8.430;2023-08-20T12:48:30;5.18;;;3.88;;
58888;SDS011;44671;49.326;8.430;2023-08-20T12:50:55;6.38;;;4.53;;
58888;SDS011;44671;49.326;8.430;2023-08-20T12:53:21;7.75;;;4.32;;
58888;SDS011;44671;49.326;8.430;2023-08-20T12:55:46;4.93;;;4.53;;
58888;SDS011;44671;49.326;8.430;2023-08-20T12:58:12;9.85;;;4.57;;
58888;SDS011;44671;49.326;8.430;2023-08-20T13:00:37;5.68;;;4.57;;
58888;SDS011;44671;49.326;8.430;2023-08-20T13:03:04;5.03;;;4.25;;
58888;SDS011;44671;49.326;8.430;2023-08-20T13:05:29;5.28;;;4.22;;
58888;SDS011;44671;49.326;8.430;2023-08-20T13:07:55;7.20;;;4.32;;
58888;SDS011;44671;49.326;8.430;2023-08-20T13:10:21;7.45;;;4.22;;
58888;SDS011;44671;49.326;8.430;2023-08-20T13:12:48;5.15;;;4.53;;
58888;SDS011;44671;49.326;8.430;2023-08-20T13:15:19;7.63;;;4.47;;
58888;SDS011;44671;49.326;8.430;2023-08-20T13:17:46;5.22;;;4.32;;
58888;SDS011;44671;49.326;8.430;2023-08-20T13:20:12;4.75;;;4.35;;
58888;SDS011;44671;49.326;8.430;2023-08-20T13:22:37;5.07;;;4.25;;
58888;SDS011;44671;49.326;8.430;2023-08-20T13:25:02;5.63;;;4.53;;
58888;SDS011;44671;49.326;8.430;2023-08-20T13:27:29;4.63;;;3.70;;
58888;SDS011;44671;49.326;8.430;2023-08-20T13:29:55;4.93;;;4.15;;
58888;SDS011;44671;49.326;8.430;2023-08-20T13:32:20;5.90;;;4.55;;
58888;SDS011;44671;49.326;8.430;2023-08-20T13:34:45;6.47;;;4.47;;
58888;SDS011;44671;49.326;8.430;2023-08-20T13:37:11;4.28;;;3.88;;
58888;SDS011;44671;49.326;8.430;2023-08-20T13:39:36;5.03;;;4.40;;
58888;SDS011;44671;49.326;8.430;2023-08-20T13:42:02;5.05;;;4.60;;
58888;SDS011;44671;49.326;8.430;2023-08-20T13:44:27;4.40;;;4.00;;
58888;SDS011;44671;49.326;8.430;2023-08-20T13:46:53;4.80;;;4.40;;
58888;SDS011;44671;49.326;8.430;2023-08-20T13:49:18;4.85;;;4.45;;
58888;SDS011;44671;49.326;8.430;2023-08-20T13:51:43;8.13;;;4.20;;
58888;SDS011;44671;49.326;8.430;2023-08-20T13:54:09;4.97;;;4.53;;
58888;SDS011;44671;49.326;8.430;2023-08-20T13:56:34;4.82;;;4.43;;
58888;SDS011;44671;49.326;8.430;2023-08-20T13:58:59;4.75;;;4.15;;
58888;SDS011;44671;49.326;8.430;2023-08-20T14:01:25;4.43;;;4.03;;
58888;SDS011;44671;49.326;8.430;2023-08-20T14:03:51;4.93;;;4.53;;
58888;SDS011;44671;49.326;8.430;2023-08-20T14:06:17;4.88;;;4.22;;
58888;SDS011;44671;49.326;8.430;2023-08-20T14:08:42;5.10;;;4.55;;
58888;SDS011;44671;49.326;8.430;2023-08-20T14:11:08;6.38;;;4.18;;
58888;SDS011;44671;49.326;8.430;2023-08-20T14:13:34;6.10;;;4.18;;
58888;SDS011;44671;49.326;8.430;2023-08-20T14:15:59;5.90;;;4.28;;
58888;SDS011;44671;49.326;8.430;2023-08-20T14:18:26;5.72;;;4.63;;
58888;SDS011;44671;49.326;8.430;2023-08-20T14:20:51;5.00;;;4.05;;
58888;SDS011;44671;49.326;8.430;2023-08-20T14:23:16;4.53;;;4.07;;
58888;SDS011;44671;49.326;8.430;2023-08-20T14:25:42;5.53;;;3.97;;
58888;SDS011;44671;49.326;8.430;2023-08-20T14:28:07;4.57;;;4.18;;
58888;SDS011;44671;49.326;8.430;2023-08-20T14:30:36;4.88;;;4.03;;
58888;SDS011;44671;49.326;8.430;2023-08-20T14:33:03;5.93;;;4.05;;
58888;SDS011;44671;49.326;8.430;2023-08-20T14:35:29;4.78;;;4.32;;
58888;SDS011;44671;49.326;8.430;2023-08-20T14:37:54;5.82;;;4.30;;
58888;SDS011;44671;49.326;8.430;2023-08-20T14:40:20;4.65;;;3.90;;
58888;SDS011;44671;49.326;8.430;2023-08-20T14:42:45;7.45;;;4.65;;
58888;SDS011;44671;49.326;8.430;2023-08-20T14:45:11;4.43;;;4.00;;
58888;SDS011;44671;49.326;8.430;2023-08-20T14:47:36;4.65;;;4.25;;
58888;SDS011;44671;49.326;8.430;2023-08-20T14:50:01;5.82;;;4.45;;
58888;SDS011;44671;49.326;8.430;2023-08-20T14:52:27;5.03;;;4.63;;
58888;SDS011;44671;49.326;8.430;2023-08-20T14:54:53;4.82;;;4.43;;
58888;SDS011;44671;49.326;8.430;2023-08-20T14:57:18;4.90;;;4.45;;
58888;SDS011;44671;49.326;8.430;2023-08-20T14:59:44;4.43;;;4.03;;